createdAt,value
2019-03-29T00:00:40.364Z,101310.11
2019-03-29T00:03:46.184Z,101309.59
2019-03-29T00:06:51.915Z,101304.91
2019-03-29T00:09:57.640Z,101306.56
2019-03-29T00:13:03.371Z,101301.69
2019-03-29T00:16:09.077Z,101306.91
2019-03-29T00:19:14.831Z,101308.53
2019-03-29T00:22:20.608Z,101298.45
2019-03-29T00:25:26.362Z,101296.83
2019-03-29T00:28:32.018Z,101288.75
2019-03-29T00:31:37.794Z,101298.34
2019-03-29T00:34:43.541Z,101302.04
2019-03-29T00:37:53.647Z,101294.98
2019-03-29T00:40:58.876Z,101301.20
2019-03-29T00:44:04.675Z,101295.67
2019-03-29T00:47:10.451Z,101292.14
2019-03-29T00:50:16.235Z,101292.97
2019-03-29T00:53:21.979Z,101288.41
2019-03-29T00:56:27.717Z,101286.06
2019-03-29T00:59:33.473Z,101284.39
2019-03-29T01:02:39.205Z,101283.39
2019-03-29T01:05:45.039Z,101282.38
2019-03-29T01:08:50.739Z,101283.72
2019-03-29T01:11:56.448Z,101285.57
2019-03-29T01:15:02.241Z,101282.08
2019-03-29T01:18:08.353Z,101285.44
2019-03-29T01:21:14.273Z,101278.03
2019-03-29T01:24:19.949Z,101281.71
2019-03-29T01:27:25.603Z,101275.99
2019-03-29T01:30:31.282Z,101274.32
2019-03-29T01:33:37.034Z,101269.98
2019-03-29T01:36:42.746Z,101270.97
2019-03-29T01:39:48.501Z,101267.47
2019-03-29T01:42:54.234Z,101271.31
2019-03-29T01:45:59.984Z,101271.80
2019-03-29T01:49:05.627Z,101266.27
2019-03-29T01:52:11.459Z,101271.66
2019-03-29T01:55:17.188Z,101264.25
2019-03-29T01:58:22.888Z,101272.97
2019-03-29T02:01:29.111Z,101275.64
2019-03-29T02:04:34.983Z,101265.55
2019-03-29T02:07:40.942Z,101265.88
2019-03-29T02:10:46.687Z,101261.94
2019-03-29T02:13:52.376Z,101262.98
2019-03-29T02:16:58.175Z,101260.45
2019-03-29T02:20:03.811Z,101259.78
2019-03-29T02:23:09.569Z,101258.24
2019-03-29T02:26:15.240Z,101254.42
2019-03-29T02:29:21.022Z,101257.59
2019-03-29T02:32:26.786Z,101258.97
2019-03-29T02:35:32.534Z,101252.58
2019-03-29T02:38:55.079Z,101250.91
2019-03-29T02:41:49.057Z,101241.52
2019-03-29T02:44:54.767Z,101241.99
2019-03-29T02:48:00.610Z,101241.85
2019-03-29T02:51:07.499Z,101240.84
2019-03-29T02:54:13.246Z,101243.06
2019-03-29T02:57:18.951Z,101239.03
2019-03-29T03:00:25.719Z,101245.77
2019-03-29T03:03:31.419Z,101237.70
2019-03-29T03:06:38.207Z,101237.03
2019-03-29T03:09:43.925Z,101237.35
2019-03-29T03:12:49.632Z,101241.39
2019-03-29T03:15:55.360Z,101236.52
2019-03-29T03:19:01.042Z,101242.36
2019-03-29T03:22:06.723Z,101239.17
2019-03-29T03:25:12.898Z,101236.68
2019-03-29T03:28:22.114Z,101237.19
2019-03-29T03:31:29.426Z,101238.03
2019-03-29T03:34:35.286Z,101237.69
2019-03-29T03:37:41.025Z,101236.98
2019-03-29T03:40:46.766Z,101229.26
2019-03-29T03:43:52.515Z,101231.41
2019-03-29T03:46:58.235Z,101227.20
2019-03-29T03:50:04.009Z,101230.58
2019-03-29T03:53:10.281Z,101225.93
2019-03-29T03:56:17.922Z,101216.19
2019-03-29T03:59:25.728Z,101211.30
2019-03-29T04:02:31.600Z,101215.03
2019-03-29T04:05:37.367Z,101220.05
2019-03-29T04:08:43.045Z,101216.99
2019-03-29T04:11:48.701Z,101211.09
2019-03-29T04:14:54.407Z,101213.09
2019-03-29T04:18:00.103Z,101204.52
2019-03-29T04:21:05.830Z,101210.53
2019-03-29T04:24:11.592Z,101208.99
2019-03-29T04:27:17.339Z,101204.13
2019-03-29T04:30:23.049Z,101212.67
2019-03-29T04:33:28.774Z,101213.66
2019-03-29T04:36:34.607Z,101212.28
2019-03-29T04:39:40.321Z,101208.25
2019-03-29T04:42:46.124Z,101208.25
2019-03-29T04:45:51.941Z,101211.95
2019-03-29T04:48:57.731Z,101206.61
2019-03-29T04:52:03.470Z,101218.04
2019-03-29T04:55:09.577Z,101212.89
2019-03-29T04:58:16.213Z,101214.39
2019-03-29T05:01:22.075Z,101219.09
2019-03-29T05:04:27.798Z,101220.95
2019-03-29T05:07:36.798Z,101219.77
2019-03-29T05:10:40.994Z,101220.42
2019-03-29T05:13:46.784Z,101232.83
2019-03-29T05:16:52.456Z,101225.81
2019-03-29T05:19:58.232Z,101227.16
2019-03-29T05:23:03.935Z,101228.52
2019-03-29T05:26:09.709Z,101220.31
2019-03-29T05:29:15.494Z,101218.12
2019-03-29T05:32:21.266Z,101215.09
2019-03-29T05:35:27.025Z,101213.75
2019-03-29T05:38:32.837Z,101211.75
2019-03-29T05:41:39.658Z,101211.75
2019-03-29T05:44:45.391Z,101212.58
2019-03-29T05:47:51.094Z,101213.27
2019-03-29T05:50:56.859Z,101208.23
2019-03-29T05:54:02.680Z,101215.65
2019-03-29T05:57:08.347Z,101213.83
2019-03-29T06:00:16.732Z,101213.81
2019-03-29T06:03:22.440Z,101207.78
2019-03-29T06:06:28.195Z,101201.39
2019-03-29T06:09:35.103Z,101214.17
2019-03-29T06:12:40.959Z,101214.17
2019-03-29T06:15:46.660Z,101212.45
2019-03-29T06:18:52.364Z,101209.95
2019-03-29T06:21:58.145Z,101204.39
2019-03-29T06:25:03.845Z,101202.35
2019-03-29T06:28:09.583Z,101202.17
2019-03-29T06:31:15.384Z,101204.84
2019-03-29T06:34:21.048Z,101201.75
2019-03-29T06:37:27.974Z,101201.22
2019-03-29T06:40:33.932Z,101203.39
2019-03-29T06:43:39.661Z,101199.99
2019-03-29T06:46:45.371Z,101205.34
2019-03-29T06:49:51.093Z,101203.36
2019-03-29T06:52:56.820Z,101201.34
2019-03-29T06:56:02.584Z,101201.13
2019-03-29T06:59:08.321Z,101202.42
2019-03-29T07:02:14.174Z,101207.79
2019-03-29T07:05:19.988Z,101197.17
2019-03-29T07:08:25.966Z,101201.86
2019-03-29T07:11:32.963Z,101203.23
2019-03-29T07:14:38.704Z,101194.46
2019-03-29T07:17:44.423Z,101187.54
2019-03-29T07:20:50.077Z,101191.28
2019-03-29T07:23:55.868Z,101189.17
2019-03-29T07:27:01.707Z,101182.23
2019-03-29T07:30:11.530Z,101183.28
2019-03-29T07:33:17.317Z,101185.95
2019-03-29T07:36:23.026Z,101176.27
2019-03-29T07:39:28.900Z,101183.91
2019-03-29T07:42:34.808Z,101179.14
2019-03-29T07:45:40.526Z,101178.44
2019-03-29T07:48:46.292Z,101181.48
2019-03-29T07:51:52.092Z,101176.69
2019-03-29T07:54:57.780Z,101179.17
2019-03-29T07:58:03.522Z,101174.64
2019-03-29T08:01:09.274Z,101175.73
2019-03-29T08:04:15.123Z,101173.55
2019-03-29T08:07:27.064Z,101177.05
2019-03-29T08:10:31.287Z,101172.04
2019-03-29T08:13:35.566Z,101178.29
2019-03-29T08:16:41.533Z,101171.89
2019-03-29T08:19:47.321Z,101166.16
2019-03-29T08:22:54.163Z,101172.45
2019-03-29T08:25:59.836Z,101174.53
2019-03-29T08:29:05.530Z,101174.77
2019-03-29T08:32:11.330Z,101171.57
2019-03-29T08:35:17.013Z,101168.61
2019-03-29T08:38:22.736Z,101175.41
2019-03-29T08:41:28.459Z,101172.70
2019-03-29T08:44:34.097Z,101177.52
2019-03-29T08:47:39.848Z,101173.15
2019-03-29T08:50:46.609Z,101167.66
2019-03-29T08:53:52.366Z,101167.44
2019-03-29T08:56:57.985Z,101168.30
2019-03-29T09:00:03.719Z,101163.75
2019-03-29T09:03:09.438Z,101166.27
2019-03-29T09:06:15.358Z,101171.64
2019-03-29T09:09:21.108Z,101172.24
2019-03-29T09:12:26.935Z,101165.63
2019-03-29T09:15:34.769Z,101162.33
2019-03-29T09:18:40.565Z,101167.80
2019-03-29T09:21:46.244Z,101166.88
2019-03-29T09:24:52.080Z,101162.63
2019-03-29T09:27:57.853Z,101167.81
2019-03-29T09:31:03.684Z,101168.11
2019-03-29T09:34:09.456Z,101161.27
2019-03-29T09:37:15.180Z,101174.17
2019-03-29T09:40:21.077Z,101165.75
2019-03-29T09:43:27.031Z,101163.63
2019-03-29T09:46:32.744Z,101154.26
2019-03-29T09:49:38.462Z,101154.35
2019-03-29T09:52:44.177Z,101158.78
2019-03-29T09:55:53.296Z,101150.78
2019-03-29T09:58:57.504Z,101147.72
2019-03-29T10:02:03.207Z,101144.34
2019-03-29T10:05:09.298Z,101144.31
2019-03-29T10:08:15.141Z,101137.56
2019-03-29T10:11:22.214Z,101142.43
2019-03-29T10:14:27.975Z,101142.93
2019-03-29T10:17:33.850Z,101142.77
2019-03-29T10:20:39.534Z,101136.06
2019-03-29T10:23:45.410Z,101131.84
2019-03-29T10:26:51.111Z,101130.78
2019-03-29T10:29:56.779Z,101122.18
2019-03-29T10:33:02.454Z,101121.70
2019-03-29T10:36:08.172Z,101119.67
2019-03-29T10:39:14.006Z,101111.55
2019-03-29T10:42:19.682Z,101106.39
2019-03-29T10:45:25.447Z,101100.61
2019-03-29T10:48:31.230Z,101098.44
2019-03-29T10:51:36.951Z,101094.17
2019-03-29T10:54:42.618Z,101088.65
2019-03-29T10:57:48.339Z,101079.83
2019-03-29T11:00:54.069Z,101077.77
2019-03-29T11:03:59.812Z,101074.50
2019-03-29T11:07:05.588Z,101071.78
2019-03-29T11:10:15.383Z,101078.95
2019-03-29T11:13:21.210Z,101067.44
2019-03-29T11:16:26.960Z,101056.11
2019-03-29T11:19:32.624Z,101063.71
2019-03-29T11:22:38.364Z,101066.57
2019-03-29T11:25:44.153Z,101067.04
2019-03-29T11:28:49.897Z,101066.98
2019-03-29T11:31:55.580Z,101059.72
2019-03-29T11:35:01.294Z,101050.17
2019-03-29T11:38:07.088Z,101042.20
2019-03-29T11:41:12.794Z,101045.58
2019-03-29T11:44:18.501Z,101044.14
2019-03-29T11:47:24.185Z,101043.11
2019-03-29T11:50:29.887Z,101035.62
2019-03-29T11:53:35.715Z,101020.25
2019-03-29T11:56:41.384Z,101026.66
2019-03-29T11:59:47.120Z,101030.74
2019-03-29T12:02:52.795Z,101018.74
2019-03-29T12:05:58.599Z,101011.38
2019-03-29T12:09:06.052Z,101005.32
2019-03-29T12:12:12.276Z,101003.67
2019-03-29T12:15:19.098Z,101005.96
2019-03-29T12:18:24.850Z,101006.77
2019-03-29T12:21:30.541Z,101004.29
2019-03-29T12:24:36.274Z,101000.34
2019-03-29T12:27:42.100Z,100996.50
2019-03-29T12:30:47.862Z,100980.66
2019-03-29T12:33:53.692Z,100973.19
2019-03-29T12:36:59.367Z,100974.63
2019-03-29T12:40:05.191Z,100966.83
2019-03-29T12:43:12.741Z,100957.53
2019-03-29T12:46:18.621Z,100959.96
2019-03-29T12:49:24.403Z,100953.36
2019-03-29T12:52:30.139Z,100948.63
2019-03-29T12:55:35.918Z,100947.56
2019-03-29T12:58:41.578Z,100945.81
2019-03-29T13:01:47.390Z,100940.34
2019-03-29T13:04:53.136Z,100934.67
2019-03-29T13:07:58.919Z,100933.41
2019-03-29T13:11:04.680Z,100931.81
2019-03-29T13:14:12.576Z,100929.54
2019-03-29T13:17:18.661Z,100916.00
2019-03-29T13:20:24.570Z,100915.30
2019-03-29T13:23:30.406Z,100910.30
2019-03-29T13:26:36.281Z,100900.77
2019-03-29T13:29:41.954Z,100894.13
2019-03-29T13:32:47.766Z,100891.53
2019-03-29T13:35:53.729Z,100878.22
2019-03-29T13:38:59.581Z,100874.88
2019-03-29T13:42:05.280Z,100863.47
2019-03-29T13:45:12.154Z,100854.28
2019-03-29T13:48:17.885Z,100864.28
2019-03-29T13:51:23.571Z,100859.84
2019-03-29T13:54:29.416Z,100845.34
2019-03-29T13:57:35.323Z,100838.25
2019-03-29T14:00:41.075Z,100839.33
2019-03-29T14:03:46.808Z,100833.08
2019-03-29T14:06:52.504Z,100829.47
2019-03-29T14:09:58.257Z,100826.11
2019-03-29T14:13:04.048Z,100820.11
2019-03-29T14:16:09.714Z,100817.81
2019-03-29T14:19:15.478Z,100806.75
2019-03-29T14:22:21.386Z,100806.50
2019-03-29T14:25:27.095Z,100803.91
2019-03-29T14:28:32.882Z,100795.91
2019-03-29T14:31:38.658Z,100792.05
2019-03-29T14:34:44.406Z,100784.05
2019-03-29T14:37:50.116Z,100782.31
2019-03-29T14:40:55.912Z,100772.83
2019-03-29T14:44:01.555Z,100765.25
2019-03-29T14:47:07.335Z,100767.31
2019-03-29T14:50:13.297Z,100768.61
2019-03-29T14:53:19.134Z,100757.58
2019-03-29T14:56:24.869Z,100755.94
2019-03-29T14:59:30.573Z,100751.78
2019-03-29T15:02:36.375Z,100754.64
2019-03-29T15:05:42.369Z,100741.36
2019-03-29T15:08:49.871Z,100735.86
2019-03-29T15:11:55.782Z,100738.41
2019-03-29T15:15:06.327Z,100732.94
2019-03-29T15:18:09.954Z,100728.85
2019-03-29T15:21:15.713Z,100729.03
2019-03-29T15:24:21.454Z,100724.75
2019-03-29T15:27:27.221Z,100728.31
2019-03-29T15:30:33.094Z,100718.95
2019-03-29T15:33:38.764Z,100716.86
2019-03-29T15:36:44.518Z,100718.00
2019-03-29T15:39:50.403Z,100711.95
2019-03-29T15:42:56.210Z,100704.51
2019-03-29T15:46:01.950Z,100711.73
2019-03-29T15:49:07.730Z,100703.27
2019-03-29T15:52:14.723Z,100699.16
2019-03-29T15:55:20.532Z,100696.67
2019-03-29T15:58:26.294Z,100697.55
2019-03-29T16:01:39.055Z,100701.66
2019-03-29T16:04:45.999Z,100694.02
2019-03-29T16:07:51.806Z,100691.69
2019-03-29T16:10:57.534Z,100693.75
2019-03-29T16:14:03.355Z,100690.60
2019-03-29T16:17:09.020Z,100691.91
2019-03-29T16:20:14.693Z,100687.34
2019-03-29T16:23:20.341Z,100685.38
2019-03-29T16:26:26.072Z,100691.07
2019-03-29T16:29:31.824Z,100685.74
2019-03-29T16:32:37.553Z,100679.80
2019-03-29T16:35:43.231Z,100684.62
2019-03-29T16:38:48.957Z,100692.67
2019-03-29T16:41:54.728Z,100688.52
2019-03-29T16:45:00.659Z,100684.32
2019-03-29T16:48:06.988Z,100683.99
2019-03-29T16:51:12.864Z,100680.77
2019-03-29T16:54:18.580Z,100684.97
2019-03-29T16:57:24.351Z,100681.82
2019-03-29T17:00:30.027Z,100689.19
2019-03-29T17:03:35.763Z,100681.50
2019-03-29T17:06:41.429Z,100684.22
2019-03-29T17:09:47.082Z,100676.50
2019-03-29T17:12:52.713Z,100678.89
2019-03-29T17:16:02.073Z,100678.03
2019-03-29T17:19:05.817Z,100681.47
2019-03-29T17:22:11.512Z,100685.97
2019-03-29T17:25:17.184Z,100678.91
2019-03-29T17:28:23.010Z,100685.63
2019-03-29T17:31:29.686Z,100682.39
2019-03-29T17:34:36.033Z,100679.91
2019-03-29T17:37:41.695Z,100686.88
2019-03-29T17:40:47.414Z,100678.20
2019-03-29T17:43:54.101Z,100677.81
2019-03-29T17:47:00.971Z,100680.61
2019-03-29T17:50:07.137Z,100684.94
2019-03-29T17:53:14.553Z,100679.53
2019-03-29T17:56:20.301Z,100688.52
2019-03-29T17:59:26.044Z,100688.56
2019-03-29T18:02:31.878Z,100693.04
2019-03-29T18:05:37.641Z,100691.44
2019-03-29T18:08:43.368Z,100694.16
2019-03-29T18:11:49.067Z,100695.82
2019-03-29T18:14:54.942Z,100695.85
2019-03-29T18:18:00.814Z,100694.72
2019-03-29T18:21:06.588Z,100700.42
2019-03-29T18:24:12.414Z,100699.78
2019-03-29T18:27:18.068Z,100700.55
2019-03-29T18:30:38.094Z,100707.50
2019-03-29T18:33:44.262Z,100710.29
2019-03-29T18:36:50.653Z,100704.84
2019-03-29T18:39:56.782Z,100707.50
2019-03-29T18:43:02.460Z,100714.99
2019-03-29T18:46:08.161Z,100720.23
2019-03-29T18:49:13.934Z,100711.66
2019-03-29T18:52:20.088Z,100720.20
2019-03-29T18:55:26.251Z,100727.47
2019-03-29T18:58:31.982Z,100727.83
2019-03-29T19:01:37.712Z,100730.47
2019-03-29T19:04:43.483Z,100722.69
2019-03-29T19:07:49.293Z,100732.28
2019-03-29T19:10:55.004Z,100730.38
2019-03-29T19:14:00.795Z,100721.94
2019-03-29T19:17:06.483Z,100728.11
2019-03-29T19:20:26.213Z,100717.40
2019-03-29T19:23:19.724Z,100719.99
2019-03-29T19:26:25.458Z,100714.98
2019-03-29T19:29:31.165Z,100711.92
2019-03-29T19:32:36.949Z,100716.53
2019-03-29T19:35:42.700Z,100720.50
2019-03-29T19:38:48.558Z,100715.53
2019-03-29T19:41:55.265Z,100718.93
2019-03-29T19:45:01.026Z,100720.98
2019-03-29T19:48:06.916Z,100713.63
2019-03-29T19:51:12.611Z,100710.44
2019-03-29T19:54:18.292Z,100711.50
2019-03-29T19:57:24.013Z,100706.29
2019-03-29T20:00:40.882Z,100711.02
2019-03-29T20:03:46.556Z,100715.05
2019-03-29T20:06:52.405Z,100708.05
2019-03-29T20:09:58.094Z,100707.40
2019-03-29T20:13:03.948Z,100702.39
2019-03-29T20:16:09.669Z,100701.39
2019-03-29T20:19:15.415Z,100702.26
2019-03-29T20:22:21.240Z,100698.08
2019-03-29T20:25:27.585Z,100699.09
2019-03-29T20:28:33.474Z,100702.14
2019-03-29T20:31:39.196Z,100699.47
2019-03-29T20:34:44.898Z,100691.91
2019-03-29T20:37:50.601Z,100693.44
2019-03-29T20:40:56.298Z,100692.09
2019-03-29T20:44:02.061Z,100695.76
2019-03-29T20:47:07.747Z,100696.45
2019-03-29T20:50:15.183Z,100701.11
2019-03-29T20:53:20.882Z,100695.75
2019-03-29T20:56:28.881Z,100698.73
2019-03-29T20:59:34.063Z,100701.91
2019-03-29T21:02:39.786Z,100698.50
2019-03-29T21:05:45.544Z,100703.14
2019-03-29T21:08:51.181Z,100701.61
2019-03-29T21:11:56.902Z,100697.27
2019-03-29T21:15:02.627Z,100697.73
2019-03-29T21:18:08.463Z,100699.09
2019-03-29T21:21:14.155Z,100695.42
2019-03-29T21:24:19.934Z,100691.70
2019-03-29T21:27:25.716Z,100694.06
2019-03-29T21:30:31.465Z,100690.28
2019-03-29T21:33:40.486Z,100692.89
2019-03-29T21:36:45.630Z,100691.91
2019-03-29T21:39:51.618Z,100690.42
2019-03-29T21:42:57.605Z,100681.00
2019-03-29T21:46:03.307Z,100684.21
2019-03-29T21:49:09.089Z,100685.02
2019-03-29T21:52:14.878Z,100684.30
2019-03-29T21:55:20.593Z,100683.03
2019-03-29T21:58:28.819Z,100679.53
2019-03-29T22:01:34.500Z,100681.66
2019-03-29T22:04:40.325Z,100676.59
2019-03-29T22:07:46.067Z,100676.30
2019-03-29T22:10:51.804Z,100678.25
2019-03-29T22:13:57.496Z,100672.80
2019-03-29T22:17:04.266Z,100672.20
2019-03-29T22:20:10.979Z,100670.39
2019-03-29T22:23:16.885Z,100673.16
2019-03-29T22:26:22.611Z,100662.70
2019-03-29T22:29:28.351Z,100674.34
2019-03-29T22:32:34.068Z,100667.28
2019-03-29T22:35:39.836Z,100664.20
2019-03-29T22:38:46.614Z,100664.13
2019-03-29T22:41:52.330Z,100664.08
2019-03-29T22:44:58.062Z,100663.34
2019-03-29T22:48:03.955Z,100663.60
2019-03-29T22:51:09.626Z,100664.23
2019-03-29T22:54:15.381Z,100671.23
2019-03-29T22:57:21.076Z,100666.70
2019-03-29T23:00:38.467Z,100663.89
2019-03-29T23:03:45.784Z,100666.89
2019-03-29T23:06:51.515Z,100665.30
2019-03-29T23:09:57.183Z,100653.60
2019-03-29T23:13:02.948Z,100654.94
2019-03-29T23:16:08.813Z,100654.24
2019-03-29T23:19:14.511Z,100646.75
2019-03-29T23:22:20.228Z,100649.52
2019-03-29T23:25:26.043Z,100650.65
2019-03-29T23:28:31.711Z,100648.48
2019-03-29T23:31:37.460Z,100652.82
2019-03-29T23:34:43.215Z,100649.65
2019-03-29T23:37:48.988Z,100649.63
2019-03-29T23:40:54.688Z,100649.23
2019-03-29T23:44:00.393Z,100644.48
2019-03-29T23:47:06.079Z,100649.87
2019-03-29T23:50:11.787Z,100649.78
2019-03-29T23:53:17.430Z,100642.78
2019-03-29T23:56:23.165Z,100639.64
2019-03-29T23:59:28.840Z,100641.64
